sensor_id;sensor_type;location;lat;lon;timestamp;P1;durP1;ratioP1;P2;durP2;ratioP2
18449;SDS011;9354;50.194;7.690;2023-11-21T00:00:37;5.00;;;1.50;;
18449;SDS011;9354;50.194;7.690;2023-11-21T00:03:05;20.00;;;1.77;;
18449;SDS011;9354;50.194;7.690;2023-11-21T00:05:32;32.30;;;3.30;;
18449;SDS011;9354;50.194;7.690;2023-11-21T00:08:00;56.00;;;2.70;;
18449;SDS011;9354;50.194;7.690;2023-11-21T00:10:28;7.43;;;1.87;;
18449;SDS011;9354;50.194;7.690;2023-11-21T00:12:55;15.33;;;1.70;;
18449;SDS011;9354;50.194;7.690;2023-11-21T00:15:24;2.70;;;1.20;;
18449;SDS011;9354;50.194;7.690;2023-11-21T00:17:52;3.00;;;1.10;;
18449;SDS011;9354;50.194;7.690;2023-11-21T00:20:20;3.80;;;0.83;;
18449;SDS011;9354;50.194;7.690;2023-11-21T00:22:48;1.30;;;0.70;;
18449;SDS011;9354;50.194;7.690;2023-11-21T00:25:15;4.67;;;0.97;;
18449;SDS011;9354;50.194;7.690;2023-11-21T00:27:43;1.57;;;0.70;;
18449;SDS011;9354;50.194;7.690;2023-11-21T00:30:11;1.80;;;0.90;;
18449;SDS011;9354;50.194;7.690;2023-11-21T00:32:40;3.70;;;1.20;;
18449;SDS011;9354;50.194;7.690;2023-11-21T00:35:08;2.57;;;1.10;;
18449;SDS011;9354;50.194;7.690;2023-11-21T00:37:36;2.27;;;1.00;;
18449;SDS011;9354;50.194;7.690;2023-11-21T00:40:05;3.00;;;0.93;;
18449;SDS011;9354;50.194;7.690;2023-11-21T00:42:33;2.47;;;0.87;;
18449;SDS011;9354;50.194;7.690;2023-11-21T00:45:00;2.10;;;1.03;;
18449;SDS011;9354;50.194;7.690;2023-11-21T00:47:29;3.43;;;0.90;;
18449;SDS011;9354;50.194;7.690;2023-11-21T00:49:57;1.90;;;1.00;;
18449;SDS011;9354;50.194;7.690;2023-11-21T00:52:25;4.17;;;1.17;;
18449;SDS011;9354;50.194;7.690;2023-11-21T00:54:52;3.67;;;1.53;;
18449;SDS011;9354;50.194;7.690;2023-11-21T00:57:20;2.80;;;1.10;;
18449;SDS011;9354;50.194;7.690;2023-11-21T00:59:47;4.90;;;1.03;;
18449;SDS011;9354;50.194;7.690;2023-11-21T01:02:15;2.07;;;1.00;;
18449;SDS011;9354;50.194;7.690;2023-11-21T01:04:42;1.00;;;0.70;;
18449;SDS011;9354;50.194;7.690;2023-11-21T01:07:11;1.10;;;0.60;;
18449;SDS011;9354;50.194;7.690;2023-11-21T01:09:39;1.47;;;0.77;;
18449;SDS011;9354;50.194;7.690;2023-11-21T01:12:06;1.40;;;0.60;;
18449;SDS011;9354;50.194;7.690;2023-11-21T01:14:34;2.37;;;0.90;;
18449;SDS011;9354;50.194;7.690;2023-11-21T01:17:02;1.50;;;1.00;;
18449;SDS011;9354;50.194;7.690;2023-11-21T01:19:31;4.57;;;0.90;;
18449;SDS011;9354;50.194;7.690;2023-11-21T01:21:58;2.23;;;0.90;;
18449;SDS011;9354;50.194;7.690;2023-11-21T01:24:27;1.30;;;1.00;;
18449;SDS011;9354;50.194;7.690;2023-11-21T01:26:54;1.90;;;1.03;;
18449;SDS011;9354;50.194;7.690;2023-11-21T01:29:21;1.73;;;1.30;;
18449;SDS011;9354;50.194;7.690;2023-11-21T01:31:49;2.50;;;1.53;;
18449;SDS011;9354;50.194;7.690;2023-11-21T01:34:17;2.70;;;1.57;;
18449;SDS011;9354;50.194;7.690;2023-11-21T01:36:45;2.70;;;1.80;;
18449;SDS011;9354;50.194;7.690;2023-11-21T01:39:13;3.17;;;1.70;;
18449;SDS011;9354;50.194;7.690;2023-11-21T01:41:43;5.43;;;1.63;;
18449;SDS011;9354;50.194;7.690;2023-11-21T01:44:10;2.47;;;1.87;;
18449;SDS011;9354;50.194;7.690;2023-11-21T01:46:38;3.43;;;2.23;;
18449;SDS011;9354;50.194;7.690;2023-11-21T01:49:07;4.87;;;1.50;;
18449;SDS011;9354;50.194;7.690;2023-11-21T01:51:38;2.83;;;2.00;;
18449;SDS011;9354;50.194;7.690;2023-11-21T01:54:07;4.37;;;1.90;;
18449;SDS011;9354;50.194;7.690;2023-11-21T01:56:34;3.33;;;2.13;;
18449;SDS011;9354;50.194;7.690;2023-11-21T01:59:03;4.27;;;2.33;;
18449;SDS011;9354;50.194;7.690;2023-11-21T02:01:32;3.73;;;2.37;;
18449;SDS011;9354;50.194;7.690;2023-11-21T02:04:00;4.67;;;2.20;;
18449;SDS011;9354;50.194;7.690;2023-11-21T02:06:28;6.53;;;2.30;;
18449;SDS011;9354;50.194;7.690;2023-11-21T02:08:56;4.30;;;2.20;;
18449;SDS011;9354;50.194;7.690;2023-11-21T02:11:25;7.00;;;2.73;;
18449;SDS011;9354;50.194;7.690;2023-11-21T02:13:53;5.33;;;2.53;;
18449;SDS011;9354;50.194;7.690;2023-11-21T02:16:22;5.50;;;2.70;;
18449;SDS011;9354;50.194;7.690;2023-11-21T02:18:49;4.87;;;2.50;;
18449;SDS011;9354;50.194;7.690;2023-11-21T02:21:18;4.13;;;2.50;;
18449;SDS011;9354;50.194;7.690;2023-11-21T02:23:47;4.70;;;2.63;;
18449;SDS011;9354;50.194;7.690;2023-11-21T02:26:14;5.57;;;2.67;;
18449;SDS011;9354;50.194;7.690;2023-11-21T02:28:42;7.43;;;2.43;;
18449;SDS011;9354;50.194;7.690;2023-11-21T02:31:09;5.70;;;2.87;;
18449;SDS011;9354;50.194;7.690;2023-11-21T02:33:38;5.13;;;2.80;;
18449;SDS011;9354;50.194;7.690;2023-11-21T02:36:05;6.27;;;2.93;;
18449;SDS011;9354;50.194;7.690;2023-11-21T02:38:33;5.20;;;2.90;;
18449;SDS011;9354;50.194;7.690;2023-11-21T02:41:01;5.87;;;2.70;;
18449;SDS011;9354;50.194;7.690;2023-11-21T02:43:29;8.17;;;2.77;;
18449;SDS011;9354;50.194;7.690;2023-11-21T02:45:57;8.87;;;3.60;;
18449;SDS011;9354;50.194;7.690;2023-11-21T02:48:24;4.80;;;2.97;;
18449;SDS011;9354;50.194;7.690;2023-11-21T02:50:51;10.43;;;3.10;;
18449;SDS011;9354;50.194;7.690;2023-11-21T02:53:19;5.30;;;2.87;;
18449;SDS011;9354;50.194;7.690;2023-11-21T02:55:46;6.77;;;2.90;;
18449;SDS011;9354;50.194;7.690;2023-11-21T02:58:15;10.70;;;3.30;;
18449;SDS011;9354;50.194;7.690;2023-11-21T03:00:42;7.37;;;2.90;;
18449;SDS011;9354;50.194;7.690;2023-11-21T03:03:10;9.97;;;3.20;;
18449;SDS011;9354;50.194;7.690;2023-11-21T03:05:37;8.07;;;3.57;;
18449;SDS011;9354;50.194;7.690;2023-11-21T03:08:05;8.70;;;4.00;;
18449;SDS011;9354;50.194;7.690;2023-11-21T03:10:32;8.67;;;4.30;;
18449;SDS011;9354;50.194;7.690;2023-11-21T03:12:59;8.77;;;4.40;;
18449;SDS011;9354;50.194;7.690;2023-11-21T03:15:28;8.70;;;5.00;;
18449;SDS011;9354;50.194;7.690;2023-11-21T03:17:55;10.23;;;4.50;;
18449;SDS011;9354;50.194;7.690;2023-11-21T03:20:23;8.47;;;4.13;;
18449;SDS011;9354;50.194;7.690;2023-11-21T03:22:51;5.67;;;3.77;;
18449;SDS011;9354;50.194;7.690;2023-11-21T03:25:18;6.97;;;4.47;;
18449;SDS011;9354;50.194;7.690;2023-11-21T03:27:46;14.60;;;5.00;;
18449;SDS011;9354;50.194;7.690;2023-11-21T03:30:13;10.67;;;4.80;;
18449;SDS011;9354;50.194;7.690;2023-11-21T03:32:42;10.93;;;5.47;;
18449;SDS011;9354;50.194;7.690;2023-11-21T03:35:09;9.83;;;5.57;;
18449;SDS011;9354;50.194;7.690;2023-11-21T03:37:37;9.03;;;4.63;;
18449;SDS011;9354;50.194;7.690;2023-11-21T03:40:07;7.17;;;4.00;;
18449;SDS011;9354;50.194;7.690;2023-11-21T03:42:35;7.97;;;4.23;;
18449;SDS011;9354;50.194;7.690;2023-11-21T03:45:02;8.30;;;4.23;;
18449;SDS011;9354;50.194;7.690;2023-11-21T03:47:30;8.63;;;3.80;;
18449;SDS011;9354;50.194;7.690;2023-11-21T03:49:59;9.33;;;3.90;;
18449;SDS011;9354;50.194;7.690;2023-11-21T03:52:26;7.80;;;4.50;;
18449;SDS011;9354;50.194;7.690;2023-11-21T03:54:54;11.40;;;5.00;;
18449;SDS011;9354;50.194;7.690;2023-11-21T03:57:21;8.10;;;4.37;;
18449;SDS011;9354;50.194;7.690;2023-11-21T03:59:49;7.90;;;4.00;;
18449;SDS011;9354;50.194;7.690;2023-11-21T04:02:16;7.63;;;4.60;;
18449;SDS011;9354;50.194;7.690;2023-11-21T04:04:43;8.27;;;4.77;;
18449;SDS011;9354;50.194;7.690;2023-11-21T04:07:12;9.87;;;4.93;;
18449;SDS011;9354;50.194;7.690;2023-11-21T04:09:41;9.97;;;4.57;;
18449;SDS011;9354;50.194;7.690;2023-11-21T04:12:08;9.07;;;4.83;;
18449;SDS011;9354;50.194;7.690;2023-11-21T04:14:36;11.77;;;5.17;;
18449;SDS011;9354;50.194;7.690;2023-11-21T04:17:03;11.00;;;5.00;;
18449;SDS011;9354;50.194;7.690;2023-11-21T04:19:31;11.37;;;5.10;;
18449;SDS011;9354;50.194;7.690;2023-11-21T04:21:58;7.43;;;4.43;;
18449;SDS011;9354;50.194;7.690;2023-11-21T04:24:27;8.13;;;4.90;;
18449;SDS011;9354;50.194;7.690;2023-11-21T04:26:54;6.77;;;4.40;;
18449;SDS011;9354;50.194;7.690;2023-11-21T04:29:22;9.47;;;4.50;;
18449;SDS011;9354;50.194;7.690;2023-11-21T04:31:49;9.43;;;4.53;;
18449;SDS011;9354;50.194;7.690;2023-11-21T04:34:16;7.10;;;4.23;;
18449;SDS011;9354;50.194;7.690;2023-11-21T04:36:44;8.53;;;4.53;;
18449;SDS011;9354;50.194;7.690;2023-11-21T04:39:11;6.90;;;4.33;;
18449;SDS011;9354;50.194;7.690;2023-11-21T04:41:40;7.87;;;4.63;;
18449;SDS011;9354;50.194;7.690;2023-11-21T04:44:08;9.70;;;4.30;;
18449;SDS011;9354;50.194;7.690;2023-11-21T04:46:35;10.47;;;5.00;;
18449;SDS011;9354;50.194;7.690;2023-11-21T04:49:03;10.70;;;5.17;;
18449;SDS011;9354;50.194;7.690;2023-11-21T04:51:30;10.90;;;5.20;;
18449;SDS011;9354;50.194;7.690;2023-11-21T04:53:58;11.50;;;5.10;;
18449;SDS011;9354;50.194;7.690;2023-11-21T04:56:25;11.03;;;5.10;;
18449;SDS011;9354;50.194;7.690;2023-11-21T04:58:54;11.30;;;5.30;;
18449;SDS011;9354;50.194;7.690;2023-11-21T05:01:21;10.17;;;4.80;;
18449;SDS011;9354;50.194;7.690;2023-11-21T05:03:49;8.43;;;4.60;;
18449;SDS011;9354;50.194;7.690;2023-11-21T05:06:17;7.73;;;4.33;;
18449;SDS011;9354;50.194;7.690;2023-11-21T05:08:45;8.20;;;4.23;;
18449;SDS011;9354;50.194;7.690;2023-11-21T05:11:22;8.60;;;3.93;;
18449;SDS011;9354;50.194;7.690;2023-11-21T05:13:50;6.27;;;4.00;;
18449;SDS011;9354;50.194;7.690;2023-11-21T05:16:19;7.57;;;3.57;;
18449;SDS011;9354;50.194;7.690;2023-11-21T05:18:47;5.90;;;3.60;;
18449;SDS011;9354;50.194;7.690;2023-11-21T05:21:16;6.77;;;3.60;;
18449;SDS011;9354;50.194;7.690;2023-11-21T05:23:46;6.60;;;3.50;;
18449;SDS011;9354;50.194;7.690;2023-11-21T05:26:13;5.47;;;3.17;;
18449;SDS011;9354;50.194;7.690;2023-11-21T05:28:41;3.70;;;2.70;;
18449;SDS011;9354;50.194;7.690;2023-11-21T05:31:08;5.97;;;2.50;;
18449;SDS011;9354;50.194;7.690;2023-11-21T05:33:37;4.07;;;2.33;;
18449;SDS011;9354;50.194;7.690;2023-11-21T05:36:05;5.57;;;2.70;;
18449;SDS011;9354;50.194;7.690;2023-11-21T05:38:35;3.57;;;2.03;;
18449;SDS011;9354;50.194;7.690;2023-11-21T05:41:03;3.40;;;2.10;;
18449;SDS011;9354;50.194;7.690;2023-11-21T05:43:30;5.07;;;2.10;;
18449;SDS011;9354;50.194;7.690;2023-11-21T05:46:01;3.17;;;1.73;;
18449;SDS011;9354;50.194;7.690;2023-11-21T05:48:28;2.67;;;1.93;;
18449;SDS011;9354;50.194;7.690;2023-11-21T05:50:57;3.07;;;2.03;;
18449;SDS011;9354;50.194;7.690;2023-11-21T05:53:24;3.53;;;2.00;;
18449;SDS011;9354;50.194;7.690;2023-11-21T05:55:51;5.43;;;2.30;;
18449;SDS011;9354;50.194;7.690;2023-11-21T05:58:19;4.20;;;2.40;;
18449;SDS011;9354;50.194;7.690;2023-11-21T06:00:46;4.67;;;2.20;;
18449;SDS011;9354;50.194;7.690;2023-11-21T06:03:14;4.33;;;2.57;;
18449;SDS011;9354;50.194;7.690;2023-11-21T06:05:43;4.43;;;2.40;;
18449;SDS011;9354;50.194;7.690;2023-11-21T06:08:11;4.10;;;2.50;;
18449;SDS011;9354;50.194;7.690;2023-11-21T06:10:42;7.47;;;3.07;;
18449;SDS011;9354;50.194;7.690;2023-11-21T06:13:10;4.37;;;2.60;;
18449;SDS011;9354;50.194;7.690;2023-11-21T06:15:37;3.40;;;2.13;;
18449;SDS011;9354;50.194;7.690;2023-11-21T06:18:05;5.00;;;2.40;;
18449;SDS011;9354;50.194;7.690;2023-11-21T06:20:35;5.27;;;2.47;;
18449;SDS011;9354;50.194;7.690;2023-11-21T06:23:03;5.30;;;2.43;;
18449;SDS011;9354;50.194;7.690;2023-11-21T06:25:32;8.27;;;2.93;;
18449;SDS011;9354;50.194;7.690;2023-11-21T06:28:02;6.97;;;2.77;;
18449;SDS011;9354;50.194;7.690;2023-11-21T06:30:30;6.90;;;2.93;;
18449;SDS011;9354;50.194;7.690;2023-11-21T06:32:58;6.23;;;2.70;;
18449;SDS011;9354;50.194;7.690;2023-11-21T06:35:25;5.43;;;3.00;;
18449;SDS011;9354;50.194;7.690;2023-11-21T06:37:55;7.17;;;3.20;;
18449;SDS011;9354;50.194;7.690;2023-11-21T06:40:22;5.67;;;3.27;;
18449;SDS011;9354;50.194;7.690;2023-11-21T06:42:51;5.63;;;3.20;;
18449;SDS011;9354;50.194;7.690;2023-11-21T06:45:19;7.40;;;3.27;;
18449;SDS011;9354;50.194;7.690;2023-11-21T06:47:47;7.67;;;3.30;;
18449;SDS011;9354;50.194;7.690;2023-11-21T06:50:14;6.10;;;3.40;;
18449;SDS011;9354;50.194;7.690;2023-11-21T06:52:42;7.17;;;3.23;;
18449;SDS011;9354;50.194;7.690;2023-11-21T06:55:10;6.50;;;3.90;;
18449;SDS011;9354;50.194;7.690;2023-11-21T06:57:37;8.87;;;3.67;;
18449;SDS011;9354;50.194;7.690;2023-11-21T07:00:07;6.43;;;3.40;;
18449;SDS011;9354;50.194;7.690;2023-11-21T07:02:35;6.03;;;3.23;;
18449;SDS011;9354;50.194;7.690;2023-11-21T07:05:03;8.23;;;3.60;;
18449;SDS011;9354;50.194;7.690;2023-11-21T07:07:31;7.27;;;3.60;;
18449;SDS011;9354;50.194;7.690;2023-11-21T07:10:01;7.60;;;3.43;;
18449;SDS011;9354;50.194;7.690;2023-11-21T07:12:29;10.80;;;4.33;;
18449;SDS011;9354;50.194;7.690;2023-11-21T07:14:56;11.50;;;5.70;;
18449;SDS011;9354;50.194;7.690;2023-11-21T07:17:25;8.43;;;4.50;;
18449;SDS011;9354;50.194;7.690;2023-11-21T07:19:53;8.13;;;4.43;;
18449;SDS011;9354;50.194;7.690;2023-11-21T07:22:20;9.90;;;4.57;;
18449;SDS011;9354;50.194;7.690;2023-11-21T07:24:48;9.17;;;5.00;;
18449;SDS011;9354;50.194;7.690;2023-11-21T07:27:16;12.07;;;5.17;;
18449;SDS011;9354;50.194;7.690;2023-11-21T07:29:44;10.17;;;4.70;;
18449;SDS011;9354;50.194;7.690;2023-11-21T07:32:11;16.73;;;5.17;;
18449;SDS011;9354;50.194;7.690;2023-11-21T07:34:41;10.83;;;4.47;;
18449;SDS011;9354;50.194;7.690;2023-11-21T07:37:09;13.43;;;5.37;;
18449;SDS011;9354;50.194;7.690;2023-11-21T07:39:36;10.13;;;5.13;;
18449;SDS011;9354;50.194;7.690;2023-11-21T07:42:07;10.07;;;4.80;;
18449;SDS011;9354;50.194;7.690;2023-11-21T07:44:36;10.60;;;5.53;;
18449;SDS011;9354;50.194;7.690;2023-11-21T07:47:03;9.40;;;5.27;;
18449;SDS011;9354;50.194;7.690;2023-11-21T07:49:31;11.67;;;5.33;;
18449;SDS011;9354;50.194;7.690;2023-11-21T07:52:00;17.00;;;5.73;;
18449;SDS011;9354;50.194;7.690;2023-11-21T07:54:27;10.47;;;5.40;;
18449;SDS011;9354;50.194;7.690;2023-11-21T07:56:55;10.73;;;5.53;;
18449;SDS011;9354;50.194;7.690;2023-11-21T07:59:22;14.40;;;5.47;;
18449;SDS011;9354;50.194;7.690;2023-11-21T08:01:49;18.57;;;6.23;;
18449;SDS011;9354;50.194;7.690;2023-11-21T08:04:17;12.03;;;5.67;;
18449;SDS011;9354;50.194;7.690;2023-11-21T08:06:44;11.93;;;5.70;;
18449;SDS011;9354;50.194;7.690;2023-11-21T08:09:14;14.30;;;5.67;;
18449;SDS011;9354;50.194;7.690;2023-11-21T08:11:43;15.60;;;6.20;;
18449;SDS011;9354;50.194;7.690;2023-11-21T08:14:10;13.07;;;6.13;;
18449;SDS011;9354;50.194;7.690;2023-11-21T08:16:37;14.00;;;6.53;;
18449;SDS011;9354;50.194;7.690;2023-11-21T08:19:05;16.23;;;6.83;;
18449;SDS011;9354;50.194;7.690;2023-11-21T08:21:34;17.27;;;7.33;;
18449;SDS011;9354;50.194;7.690;2023-11-21T08:24:05;14.30;;;7.00;;
18449;SDS011;9354;50.194;7.690;2023-11-21T08:26:37;14.37;;;7.50;;
18449;SDS011;9354;50.194;7.690;2023-11-21T08:29:05;16.33;;;8.20;;
18449;SDS011;9354;50.194;7.690;2023-11-21T08:31:32;15.50;;;7.07;;
18449;SDS011;9354;50.194;7.690;2023-11-21T08:34:00;17.03;;;8.07;;
18449;SDS011;9354;50.194;7.690;2023-11-21T08:36:28;13.80;;;7.97;;
18449;SDS011;9354;50.194;7.690;2023-11-21T08:38:57;21.80;;;7.87;;
18449;SDS011;9354;50.194;7.690;2023-11-21T08:41:24;23.70;;;9.43;;
18449;SDS011;9354;50.194;7.690;2023-11-21T08:43:55;15.33;;;7.90;;
18449;SDS011;9354;50.194;7.690;2023-11-21T08:46:23;19.20;;;7.87;;
18449;SDS011;9354;50.194;7.690;2023-11-21T08:48:51;14.37;;;8.40;;
18449;SDS011;9354;50.194;7.690;2023-11-21T08:51:19;17.87;;;8.97;;
18449;SDS011;9354;50.194;7.690;2023-11-21T08:53:46;20.73;;;8.87;;
18449;SDS011;9354;50.194;7.690;2023-11-21T08:56:13;21.00;;;9.50;;
18449;SDS011;9354;50.194;7.690;2023-11-21T08:58:41;21.03;;;9.57;;
18449;SDS011;9354;50.194;7.690;2023-11-21T09:01:10;17.40;;;9.17;;
18449;SDS011;9354;50.194;7.690;2023-11-21T09:03:38;18.53;;;9.30;;
18449;SDS011;9354;50.194;7.690;2023-11-21T09:06:05;17.97;;;9.27;;
18449;SDS011;9354;50.194;7.690;2023-11-21T09:08:35;20.00;;;9.70;;
18449;SDS011;9354;50.194;7.690;2023-11-21T09:11:03;19.90;;;8.23;;
18449;SDS011;9354;50.194;7.690;2023-11-21T09:13:31;17.53;;;10.10;;
18449;SDS011;9354;50.194;7.690;2023-11-21T09:15:58;21.10;;;10.67;;
18449;SDS011;9354;50.194;7.690;2023-11-21T09:18:27;24.47;;;11.07;;
18449;SDS011;9354;50.194;7.690;2023-11-21T09:20:54;21.30;;;9.60;;
18449;SDS011;9354;50.194;7.690;2023-11-21T09:23:22;21.63;;;9.77;;
18449;SDS011;9354;50.194;7.690;2023-11-21T09:25:49;20.17;;;9.37;;
18449;SDS011;9354;50.194;7.690;2023-11-21T09:28:17;26.37;;;11.60;;
18449;SDS011;9354;50.194;7.690;2023-11-21T09:30:45;22.07;;;10.77;;
18449;SDS011;9354;50.194;7.690;2023-11-21T09:33:12;22.47;;;10.90;;
18449;SDS011;9354;50.194;7.690;2023-11-21T09:35:42;23.57;;;10.77;;
18449;SDS011;9354;50.194;7.690;2023-11-21T09:38:10;21.43;;;10.87;;
18449;SDS011;9354;50.194;7.690;2023-11-21T09:40:37;30.80;;;12.07;;
18449;SDS011;9354;50.194;7.690;2023-11-21T09:43:05;26.50;;;10.40;;
18449;SDS011;9354;50.194;7.690;2023-11-21T09:45:35;24.57;;;11.00;;
18449;SDS011;9354;50.194;7.690;2023-11-21T09:48:03;21.30;;;11.00;;
18449;SDS011;9354;50.194;7.690;2023-11-21T09:50:32;20.73;;;10.53;;
18449;SDS011;9354;50.194;7.690;2023-11-21T09:53:12;28.43;;;12.03;;
18449;SDS011;9354;50.194;7.690;2023-11-21T09:55:43;22.57;;;10.47;;
18449;SDS011;9354;50.194;7.690;2023-11-21T09:58:12;30.27;;;11.07;;
18449;SDS011;9354;50.194;7.690;2023-11-21T10:00:40;24.07;;;11.70;;
18449;SDS011;9354;50.194;7.690;2023-11-21T10:03:09;26.00;;;11.13;;
18449;SDS011;9354;50.194;7.690;2023-11-21T10:05:37;23.60;;;11.67;;
18449;SDS011;9354;50.194;7.690;2023-11-21T10:08:07;22.50;;;11.40;;
18449;SDS011;9354;50.194;7.690;2023-11-21T10:10:36;27.23;;;11.40;;
18449;SDS011;9354;50.194;7.690;2023-11-21T10:13:06;25.57;;;11.53;;
18449;SDS011;9354;50.194;7.690;2023-11-21T10:15:38;26.70;;;11.40;;
18449;SDS011;9354;50.194;7.690;2023-11-21T10:18:10;24.43;;;11.47;;
18449;SDS011;9354;50.194;7.690;2023-11-21T10:20:39;28.40;;;12.10;;
18449;SDS011;9354;50.194;7.690;2023-11-21T10:23:08;24.83;;;12.17;;
18449;SDS011;9354;50.194;7.690;2023-11-21T10:25:37;31.27;;;13.37;;
18449;SDS011;9354;50.194;7.690;2023-11-21T10:28:04;28.30;;;12.10;;
18449;SDS011;9354;50.194;7.690;2023-11-21T10:30:32;31.33;;;13.27;;
18449;SDS011;9354;50.194;7.690;2023-11-21T10:33:02;30.20;;;12.57;;
18449;SDS011;9354;50.194;7.690;2023-11-21T10:35:38;27.70;;;12.63;;
18449;SDS011;9354;50.194;7.690;2023-11-21T10:38:06;28.87;;;11.53;;
18449;SDS011;9354;50.194;7.690;2023-11-21T10:40:37;25.77;;;12.23;;
18449;SDS011;9354;50.194;7.690;2023-11-21T10:43:07;27.50;;;11.37;;
18449;SDS011;9354;50.194;7.690;2023-11-21T10:45:36;28.47;;;12.27;;
18449;SDS011;9354;50.194;7.690;2023-11-21T10:48:07;23.67;;;11.20;;
18449;SDS011;9354;50.194;7.690;2023-11-21T10:50:36;22.97;;;11.57;;
18449;SDS011;9354;50.194;7.690;2023-11-21T10:53:04;22.77;;;10.97;;
18449;SDS011;9354;50.194;7.690;2023-11-21T10:55:33;27.70;;;11.70;;
18449;SDS011;9354;50.194;7.690;2023-11-21T10:58:01;24.80;;;10.77;;
18449;SDS011;9354;50.194;7.690;2023-11-21T11:00:30;25.17;;;11.13;;
18449;SDS011;9354;50.194;7.690;2023-11-21T11:02:59;26.67;;;11.27;;
18449;SDS011;9354;50.194;7.690;2023-11-21T11:05:27;33.43;;;11.17;;
18449;SDS011;9354;50.194;7.690;2023-11-21T11:07:58;28.47;;;11.40;;
18449;SDS011;9354;50.194;7.690;2023-11-21T11:10:27;26.00;;;11.53;;
18449;SDS011;9354;50.194;7.690;2023-11-21T11:12:57;28.87;;;11.13;;
18449;SDS011;9354;50.194;7.690;2023-11-21T11:15:26;32.33;;;12.27;;
18449;SDS011;9354;50.194;7.690;2023-11-21T11:17:54;26.00;;;11.27;;
18449;SDS011;9354;50.194;7.690;2023-11-21T11:20:23;27.23;;;11.80;;
18449;SDS011;9354;50.194;7.690;2023-11-21T11:23:04;26.97;;;12.50;;
18449;SDS011;9354;50.194;7.690;2023-11-21T11:25:47;29.37;;;12.50;;
18449;SDS011;9354;50.194;7.690;2023-11-21T11:28:29;23.13;;;10.70;;
18449;SDS011;9354;50.194;7.690;2023-11-21T11:31:04;31.53;;;12.60;;
18449;SDS011;9354;50.194;7.690;2023-11-21T11:33:39;27.90;;;12.53;;
18449;SDS011;9354;50.194;7.690;2023-11-21T11:36:11;27.93;;;13.80;;
18449;SDS011;9354;50.194;7.690;2023-11-21T11:38:45;29.27;;;12.93;;
18449;SDS011;9354;50.194;7.690;2023-11-21T11:41:24;26.83;;;11.27;;
18449;SDS011;9354;50.194;7.690;2023-11-21T11:43:54;23.63;;;10.23;;
18449;SDS011;9354;50.194;7.690;2023-11-21T11:46:25;25.67;;;10.10;;
18449;SDS011;9354;50.194;7.690;2023-11-21T11:49:08;23.97;;;10.23;;
18449;SDS011;9354;50.194;7.690;2023-11-21T11:51:37;23.77;;;10.87;;
18449;SDS011;9354;50.194;7.690;2023-11-21T11:54:05;116.30;;;58.73;;
18449;SDS011;9354;50.194;7.690;2023-11-21T11:56:33;32.07;;;15.63;;
18449;SDS011;9354;50.194;7.690;2023-11-21T11:59:04;19.63;;;9.47;;
18449;SDS011;9354;50.194;7.690;2023-11-21T12:01:34;21.47;;;9.67;;
18449;SDS011;9354;50.194;7.690;2023-11-21T12:06:57;24.87;;;14.87;;
18449;SDS011;9354;50.194;7.690;2023-11-21T12:09:28;26.03;;;11.47;;
18449;SDS011;9354;50.194;7.690;2023-11-21T12:11:58;25.67;;;11.53;;
18449;SDS011;9354;50.194;7.690;2023-11-21T12:14:27;23.60;;;10.53;;
18449;SDS011;9354;50.194;7.690;2023-11-21T12:16:54;23.97;;;9.93;;
18449;SDS011;9354;50.194;7.690;2023-11-21T12:19:22;23.77;;;9.03;;
18449;SDS011;9354;50.194;7.690;2023-11-21T12:21:49;21.33;;;9.60;;
18449;SDS011;9354;50.194;7.690;2023-11-21T12:24:18;26.20;;;10.70;;
18449;SDS011;9354;50.194;7.690;2023-11-21T12:26:45;22.27;;;10.77;;
18449;SDS011;9354;50.194;7.690;2023-11-21T12:29:13;27.50;;;10.60;;
18449;SDS011;9354;50.194;7.690;2023-11-21T12:31:43;21.37;;;10.63;;
18449;SDS011;9354;50.194;7.690;2023-11-21T12:34:11;28.53;;;13.57;;
18449;SDS011;9354;50.194;7.690;2023-11-21T12:36:39;20.57;;;9.70;;
18449;SDS011;9354;50.194;7.690;2023-11-21T12:39:06;27.30;;;12.80;;
18449;SDS011;9354;50.194;7.690;2023-11-21T12:41:36;25.37;;;9.90;;
18449;SDS011;9354;50.194;7.690;2023-11-21T12:44:03;23.67;;;9.47;;
18449;SDS011;9354;50.194;7.690;2023-11-21T12:46:40;19.30;;;9.83;;
18449;SDS011;9354;50.194;7.690;2023-11-21T12:49:12;19.47;;;9.00;;
18449;SDS011;9354;50.194;7.690;2023-11-21T12:51:43;19.77;;;9.33;;
18449;SDS011;9354;50.194;7.690;2023-11-21T12:54:11;26.30;;;9.83;;
18449;SDS011;9354;50.194;7.690;2023-11-21T12:56:39;22.57;;;9.17;;
18449;SDS011;9354;50.194;7.690;2023-11-21T12:59:06;19.07;;;9.30;;
18449;SDS011;9354;50.194;7.690;2023-11-21T13:01:41;28.43;;;10.87;;
18449;SDS011;9354;50.194;7.690;2023-11-21T13:04:08;26.53;;;9.60;;
18449;SDS011;9354;50.194;7.690;2023-11-21T13:06:38;28.47;;;11.43;;
18449;SDS011;9354;50.194;7.690;2023-11-21T13:09:07;22.23;;;10.30;;
18449;SDS011;9354;50.194;7.690;2023-11-21T13:11:36;25.10;;;11.30;;
18449;SDS011;9354;50.194;7.690;2023-11-21T13:14:06;22.63;;;10.50;;
18449;SDS011;9354;50.194;7.690;2023-11-21T13:16:34;28.90;;;14.23;;
18449;SDS011;9354;50.194;7.690;2023-11-21T13:19:03;25.57;;;11.90;;
18449;SDS011;9354;50.194;7.690;2023-11-21T13:21:31;22.43;;;10.90;;
18449;SDS011;9354;50.194;7.690;2023-11-21T13:24:00;29.97;;;11.50;;
18449;SDS011;9354;50.194;7.690;2023-11-21T13:26:29;27.50;;;11.03;;
18449;SDS011;9354;50.194;7.690;2023-11-21T13:28:56;34.33;;;11.67;;
18449;SDS011;9354;50.194;7.690;2023-11-21T13:31:24;27.03;;;11.40;;
18449;SDS011;9354;50.194;7.690;2023-11-21T13:33:56;26.10;;;10.73;;
18449;SDS011;9354;50.194;7.690;2023-11-21T13:36:30;24.93;;;11.23;;
18449;SDS011;9354;50.194;7.690;2023-11-21T13:39:00;24.93;;;10.57;;
18449;SDS011;9354;50.194;7.690;2023-11-21T13:41:33;27.90;;;12.40;;
18449;SDS011;9354;50.194;7.690;2023-11-21T13:44:00;25.63;;;11.23;;
18449;SDS011;9354;50.194;7.690;2023-11-21T13:46:41;29.70;;;10.87;;
18449;SDS011;9354;50.194;7.690;2023-11-21T13:49:08;31.83;;;11.03;;
18449;SDS011;9354;50.194;7.690;2023-11-21T13:51:36;25.77;;;11.20;;
18449;SDS011;9354;50.194;7.690;2023-11-21T13:54:11;24.40;;;10.07;;
18449;SDS011;9354;50.194;7.690;2023-11-21T13:56:38;22.57;;;10.30;;
18449;SDS011;9354;50.194;7.690;2023-11-21T13:59:10;29.50;;;12.40;;
18449;SDS011;9354;50.194;7.690;2023-11-21T14:01:45;26.43;;;11.77;;
18449;SDS011;9354;50.194;7.690;2023-11-21T14:04:20;23.90;;;10.23;;
18449;SDS011;9354;50.194;7.690;2023-11-21T14:07:01;30.77;;;14.97;;
18449;SDS011;9354;50.194;7.690;2023-11-21T14:09:47;26.73;;;11.10;;
18449;SDS011;9354;50.194;7.690;2023-11-21T14:12:15;24.53;;;11.00;;
18449;SDS011;9354;50.194;7.690;2023-11-21T14:14:42;30.60;;;11.67;;
18449;SDS011;9354;50.194;7.690;2023-11-21T14:17:11;26.27;;;11.47;;
18449;SDS011;9354;50.194;7.690;2023-11-21T14:19:38;29.67;;;12.57;;
18449;SDS011;9354;50.194;7.690;2023-11-21T14:22:09;29.73;;;12.93;;
18449;SDS011;9354;50.194;7.690;2023-11-21T14:24:36;23.33;;;10.57;;
18449;SDS011;9354;50.194;7.690;2023-11-21T14:27:10;29.17;;;10.70;;
18449;SDS011;9354;50.194;7.690;2023-11-21T14:29:41;27.70;;;11.43;;
18449;SDS011;9354;50.194;7.690;2023-11-21T14:32:10;28.03;;;11.27;;
18449;SDS011;9354;50.194;7.690;2023-11-21T14:34:38;25.43;;;11.67;;
18449;SDS011;9354;50.194;7.690;2023-11-21T14:37:08;29.07;;;11.50;;
18449;SDS011;9354;50.194;7.690;2023-11-21T14:39:39;30.93;;;13.57;;
18449;SDS011;9354;50.194;7.690;2023-11-21T14:42:11;29.87;;;11.87;;
18449;SDS011;9354;50.194;7.690;2023-11-21T14:44:40;23.53;;;10.43;;
18449;SDS011;9354;50.194;7.690;2023-11-21T14:47:08;26.47;;;11.40;;
18449;SDS011;9354;50.194;7.690;2023-11-21T14:49:41;27.77;;;11.53;;
18449;SDS011;9354;50.194;7.690;2023-11-21T14:52:18;32.97;;;12.20;;
18449;SDS011;9354;50.194;7.690;2023-11-21T14:54:58;31.53;;;12.10;;
18449;SDS011;9354;50.194;7.690;2023-11-21T14:57:47;31.97;;;11.93;;
18449;SDS011;9354;50.194;7.690;2023-11-21T15:00:16;23.03;;;11.10;;